Time;durP1;ratioP1;P1;durP2;ratioP2;P2;SDS_P1;SDS_P2;PMS_P1;PMS_P2;Temp;Humidity;BMP_temperature;BMP_pressure;BME280_temperature;BME280_humidity;BME280_pressure;Samples;Min_cycle;Max_cycle;Signal;HPM_P1;HPM_P2
2022/12/06 00:02:15;;;;;;;;;;;;;;;20.00;34.20;95761.03;10425503;28;3064;-53
2022/12/06 00:07:21;;;;;;;;;;;;;;;20.01;34.50;95761.81;10443267;28;2991;-54
2022/12/06 00:12:21;;;;;;;;;;;;;;;20.01;33.67;95767.84;10438779;28;3041;-53
2022/12/06 00:17:23;;;;;;;;;;;;;;;20.00;33.05;95776.03;10456736;28;2923;-53
2022/12/06 00:22:23;;;;;;;;;;;;;;;19.99;34.42;95783.13;10420243;28;3018;-53
2022/12/06 00:27:30;;;;;;;;;;;;;;;20.00;34.02;95782.09;10423613;28;3181;-53
2022/12/06 00:32:30;;;;;;;;;;;;;;;19.99;33.79;95790.25;10444160;28;2971;-53
2022/12/06 00:37:31;;;;;;;;;;;;;;;20.01;34.30;95782.88;10444117;28;2986;-53
2022/12/06 00:42:31;;;;;;;;;;;;;;;19.97;34.14;95779.22;10449456;28;3124;-50
2022/12/06 00:47:31;;;;;;;;;;;;;;;19.96;34.11;95770.53;10445033;28;3060;-55
2022/12/06 00:52:31;;;;;;;;;;;;;;;19.98;34.16;95765.78;10448619;28;3022;-54
2022/12/06 00:57:32;;;;;;;;;;;;;;;19.96;33.93;95769.72;10423018;28;3006;-54
2022/12/06 01:02:32;;;;;;;;;;;;;;;19.99;34.39;95769.97;10442522;28;2576;-50
2022/12/06 01:07:32;;;;;;;;;;;;;;;19.97;34.36;95755.53;10445927;28;3068;-53
2022/12/06 01:12:32;;;;;;;;;;;;;;;19.96;33.69;95759.19;10450151;28;2997;-51
2022/12/06 01:17:33;;;;;;;;;;;;;;;19.98;33.80;95752.63;10435926;28;2989;-54
2022/12/06 01:22:33;;;;;;;;;;;;;;;19.98;33.34;95746.56;10439316;28;2938;-53
2022/12/06 01:27:34;;;;;;;;;;;;;;;19.98;34.22;95754.47;10443986;28;3114;-51
2022/12/06 01:32:35;;;;;;;;;;;;;;;19.99;33.49;95737.63;10437769;28;3011;-56
2022/12/06 01:37:36;;;;;;;;;;;;;;;19.95;33.24;95731.31;10425797;28;2987;-51
2022/12/06 01:42:36;;;;;;;;;;;;;;;19.94;33.48;95732.38;10434771;28;3247;-53
2022/12/06 01:47:37;;;;;;;;;;;;;;;19.92;32.84;95737.13;10433884;28;3029;-54
2022/12/06 01:52:53;;;;;;;;;;;;;;;19.94;33.25;95737.63;10448967;28;3014;-53
2022/12/06 01:57:55;;;;;;;;;;;;;;;19.93;33.10;95731.59;10441553;28;2522;-55
2022/12/06 02:02:55;;;;;;;;;;;;;;;19.95;33.01;95731.31;10429044;28;3072;-55
2022/12/06 02:07:56;;;;;;;;;;;;;;;19.94;33.00;95727.13;10433794;28;2987;-54
2022/12/06 02:12:56;;;;;;;;;;;;;;;19.94;33.26;95719.22;10433047;28;2958;-53
2022/12/06 02:18:06;;;;;;;;;;;;;;;19.94;33.30;95716.59;10435424;28;3006;-56
2022/12/06 02:23:09;;;;;;;;;;;;;;;19.93;33.31;95713.16;10427403;28;3014;-56
2022/12/06 02:28:22;;;;;;;;;;;;;;;19.94;33.41;95698.19;10431879;28;3017;-54
2022/12/06 02:33:31;;;;;;;;;;;;;;;19.92;32.88;95689.78;10430008;28;2986;-52
2022/12/06 02:38:33;;;;;;;;;;;;;;;19.96;33.00;95698.69;10445851;28;2937;-55
2022/12/06 02:43:38;;;;;;;;;;;;;;;19.94;33.40;95693.72;10435649;28;3037;-55
2022/12/06 02:48:39;;;;;;;;;;;;;;;19.94;32.36;95692.91;10435151;28;2518;-50
2022/12/06 02:53:43;;;;;;;;;;;;;;;19.95;33.29;95692.63;10455534;28;2644;-55
2022/12/06 02:58:43;;;;;;;;;;;;;;;19.93;33.59;95691.31;10467708;28;2957;-54
2022/12/06 03:03:48;;;;;;;;;;;;;;;19.94;32.66;95693.72;10441562;28;2990;-52
2022/12/06 03:09:07;;;;;;;;;;;;;;;19.92;32.37;95679.25;10428489;28;3442;-50
2022/12/06 03:14:09;;;;;;;;;;;;;;;19.92;32.55;95687.13;10438844;28;2890;-53
2022/12/06 03:19:09;;;;;;;;;;;;;;;19.96;33.20;95677.66;10457488;28;3061;-53
2022/12/06 03:24:10;;;;;;;;;;;;;;;19.94;33.02;95674.50;10435430;28;2978;-49
2022/12/06 03:29:11;;;;;;;;;;;;;;;19.98;33.23;95670.25;10423302;28;3109;-53
2022/12/06 03:34:13;;;;;;;;;;;;;;;19.90;33.18;95682.16;10428959;28;3010;-52
2022/12/06 03:39:14;;;;;;;;;;;;;;;19.94;33.55;95679.75;10426533;28;2597;-53
2022/12/06 03:44:14;;;;;;;;;;;;;;;19.96;33.47;95682.91;10437065;28;3057;-52
2022/12/06 03:49:16;;;;;;;;;;;;;;;19.92;32.91;95676.63;10440188;28;3181;-50
2022/12/06 03:54:16;;;;;;;;;;;;;;;19.93;33.26;95675.53;10455134;28;2978;-50
2022/12/06 03:59:17;;;;;;;;;;;;;;;19.90;32.73;95679.53;10433544;28;3113;-55
2022/12/06 04:04:17;;;;;;;;;;;;;;;19.91;32.58;95680.28;10450925;28;2514;-55
2022/12/06 04:14:38;;;;;;;;;;;;;;;19.94;33.40;95677.91;10440752;28;3022;-54
2022/12/06 04:19:38;;;;;;;;;;;;;;;19.90;32.22;95676.88;10442273;28;3017;-53
2022/12/06 04:24:38;;;;;;;;;;;;;;;19.90;32.47;95671.63;10444338;28;3019;-53
2022/12/06 04:40:16;;;;;;;;;;;;;;;19.86;31.92;95664.53;10436069;28;3015;-51
2022/12/06 04:45:16;;;;;;;;;;;;;;;19.89;32.56;95663.97;10438809;28;3128;-53
2022/12/06 04:50:16;;;;;;;;;;;;;;;19.87;31.98;95656.38;10441457;28;3029;-54
2022/12/06 04:55:17;;;;;;;;;;;;;;;19.88;33.10;95651.91;10446861;28;2569;-53
2022/12/06 05:00:17;;;;;;;;;;;;;;;19.88;31.83;95654.53;10446633;28;2959;-50
2022/12/06 05:05:17;;;;;;;;;;;;;;;19.92;32.15;95658.19;10452238;28;3128;-54
2022/12/06 05:10:18;;;;;;;;;;;;;;;19.91;32.61;95646.88;10449096;28;3038;-53
2022/12/06 05:15:18;;;;;;;;;;;;;;;19.92;32.84;95653.72;10449153;28;2640;-54
2022/12/06 05:20:19;;;;;;;;;;;;;;;19.90;32.94;95652.41;10440174;28;3082;-49
2022/12/06 05:25:19;;;;;;;;;;;;;;;19.92;31.97;95658.19;10436356;28;3374;-55
2022/12/06 05:30:19;;;;;;;;;;;;;;;19.93;32.48;95662.38;10432705;28;3042;-51
2022/12/06 05:35:19;;;;;;;;;;;;;;;19.95;32.94;95666.31;10438283;28;3046;-55
2022/12/06 05:40:20;;;;;;;;;;;;;;;19.93;32.31;95665.03;10434388;28;3351;-52
2022/12/06 05:45:20;;;;;;;;;;;;;;;19.94;33.04;95661.34;10432542;28;2986;-53
2022/12/06 05:50:25;;;;;;;;;;;;;;;19.93;32.84;95657.13;10435366;28;3037;-55
2022/12/06 05:55:29;;;;;;;;;;;;;;;19.92;32.22;95658.19;10442303;28;3276;-54
2022/12/06 06:00:29;;;;;;;;;;;;;;;19.93;33.04;95654.50;10438432;28;3029;-52
2022/12/06 06:05:31;;;;;;;;;;;;;;;19.91;31.69;95652.16;10427854;28;3030;-53
2022/12/06 06:10:31;;;;;;;;;;;;;;;19.82;31.85;95653.00;10437028;28;2978;-55
2022/12/06 06:15:31;;;;;;;;;;;;;;;19.79;33.02;95648.25;10433191;28;3030;-53
2022/12/06 06:20:32;;;;;;;;;;;;;;;19.75;32.83;95652.50;10432585;28;2999;-52
2022/12/06 06:25:32;;;;;;;;;;;;;;;19.73;33.19;95647.50;10424248;28;3089;-55
2022/12/06 06:30:32;;;;;;;;;;;;;;;19.75;33.10;95663.81;10433058;28;2545;-54
2022/12/06 06:35:33;;;;;;;;;;;;;;;19.72;33.63;95664.31;10431140;28;3032;-54
2022/12/06 06:40:33;;;;;;;;;;;;;;;19.71;33.76;95662.78;10429310;28;3065;-56
2022/12/06 06:45:33;;;;;;;;;;;;;;;19.72;33.75;95659.06;10432636;28;3071;-55
2022/12/06 06:50:39;;;;;;;;;;;;;;;19.72;33.73;95663.56;10422193;28;3065;-54
2022/12/06 06:55:39;;;;;;;;;;;;;;;19.71;33.97;95662.78;10437677;28;3323;-52
2022/12/06 07:00:40;;;;;;;;;;;;;;;19.72;34.04;95658.31;10430764;28;2998;-54
2022/12/06 07:05:42;;;;;;;;;;;;;;;19.87;33.55;95666.09;10415776;28;2993;-54
2022/12/06 07:10:47;;;;;;;;;;;;;;;20.21;34.37;95664.38;10434948;28;2970;-60
2022/12/06 07:15:47;;;;;;;;;;;;;;;20.21;34.26;95669.66;10434484;28;2561;-59
2022/12/06 07:20:48;;;;;;;;;;;;;;;20.13;34.17;95667.56;10439517;28;3062;-58
2022/12/06 07:25:57;;;;;;;;;;;;;;;20.08;34.47;95662.31;10447817;28;3021;-59
2022/12/06 07:30:58;;;;;;;;;;;;;;;20.13;35.01;95670.97;10442822;28;2522;-53
2022/12/06 07:35:58;;;;;;;;;;;;;;;20.09;34.73;95658.63;10458394;28;3200;-49
2022/12/06 07:41:02;;;;;;;;;;;;;;;20.02;34.51;95668.66;10443553;28;2659;-51
2022/12/06 07:46:02;;;;;;;;;;;;;;;19.99;34.61;95680.50;10436965;28;2935;-52
2022/12/06 07:51:05;;;;;;;;;;;;;;;19.97;34.74;95666.84;10446960;28;2974;-54
2022/12/06 07:56:06;;;;;;;;;;;;;;;19.96;35.01;95665.28;10446559;28;3002;-53
2022/12/06 08:01:10;;;;;;;;;;;;;;;19.96;34.82;95664.50;10441391;28;3037;-52
2022/12/06 08:06:10;;;;;;;;;;;;;;;19.94;34.38;95661.34;10435846;28;2986;-54
2022/12/06 08:11:11;;;;;;;;;;;;;;;19.94;34.70;95656.09;10434300;28;2679;-51
2022/12/06 08:16:11;;;;;;;;;;;;;;;19.94;34.39;95656.88;10439747;28;2823;-50
2022/12/06 08:21:12;;;;;;;;;;;;;;;19.96;34.50;95653.97;10438545;28;2743;-52
2022/12/06 08:26:14;;;;;;;;;;;;;;;19.95;34.19;95657.63;10437925;28;2719;-54
2022/12/06 08:31:18;;;;;;;;;;;;;;;19.90;34.21;95650.59;10436985;28;2741;-55
2022/12/06 08:36:19;;;;;;;;;;;;;;;19.90;34.28;95645.31;10441334;28;2665;-54
2022/12/06 08:46:39;;;;;;;;;;;;;;;19.88;34.13;95673.75;10438064;28;2711;-55
2022/12/06 08:51:39;;;;;;;;;;;;;;;19.88;34.04;95667.69;10444732;28;2712;-54
2022/12/06 08:56:39;;;;;;;;;;;;;;;19.88;34.05;95675.59;10447736;28;2848;-53
2022/12/06 09:01:40;;;;;;;;;;;;;;;19.87;34.06;95674.78;10433080;28;2731;-55
2022/12/06 09:06:40;;;;;;;;;;;;;;;19.91;34.95;95680.28;10438997;28;2779;-51
2022/12/06 09:11:41;;;;;;;;;;;;;;;19.96;33.99;95678.44;10445459;28;2736;-51
2022/12/06 09:16:42;;;;;;;;;;;;;;;19.90;34.48;95676.88;10433743;28;2741;-55
2022/12/06 09:21:42;;;;;;;;;;;;;;;19.88;34.21;95672.94;10436582;28;2727;-53
2022/12/06 09:26:43;;;;;;;;;;;;;;;19.88;34.25;95673.75;10439405;28;2834;-56
2022/12/06 09:31:43;;;;;;;;;;;;;;;19.84;34.77;95670.09;10430766;28;2715;-53
2022/12/06 09:36:47;;;;;;;;;;;;;;;19.84;34.15;95672.72;10436837;28;3072;-55
2022/12/06 09:42:01;;;;;;;;;;;;;;;19.84;34.29;95672.72;10428905;28;2727;-54
2022/12/06 09:47:07;;;;;;;;;;;;;;;19.82;34.39;95672.19;10432647;28;2726;-55
2022/12/06 09:52:14;;;;;;;;;;;;;;;19.82;34.31;95655.63;10441672;28;2680;-52
2022/12/06 09:57:18;;;;;;;;;;;;;;;19.81;34.09;95646.13;10437377;28;2816;-56
2022/12/06 10:02:22;;;;;;;;;;;;;;;19.80;34.03;95642.75;10433371;28;2735;-54
2022/12/06 10:07:23;;;;;;;;;;;;;;;19.81;34.13;95635.63;10429986;28;2791;-54
2022/12/06 10:12:29;;;;;;;;;;;;;;;19.79;34.60;95629.84;10429760;28;2662;-54
2022/12/06 10:17:35;;;;;;;;;;;;;;;19.82;34.43;95619.59;10432766;28;3106;-55
2022/12/06 10:22:45;;;;;;;;;;;;;;;19.78;34.08;95608.03;10424182;28;2731;-54
2022/12/06 10:27:55;;;;;;;;;;;;;;;19.80;34.29;95615.66;10428994;28;2790;-55
2022/12/06 10:33:14;;;;;;;;;;;;;;;19.77;34.20;95603.81;10437994;28;2747;-54
2022/12/06 10:38:33;;;;;;;;;;;;;;;19.77;33.83;95603.03;10445798;28;2703;-56
2022/12/06 10:43:45;;;;;;;;;;;;;;;19.77;34.40;95595.94;10428119;28;2723;-54
2022/12/06 10:48:51;;;;;;;;;;;;;;;19.77;34.09;95597.78;10436850;28;2878;-54
2022/12/06 10:53:55;;;;;;;;;;;;;;;19.75;33.83;95597.25;10435570;28;2748;-55
2022/12/06 10:59:01;;;;;;;;;;;;;;;19.77;34.49;95597.78;10431747;28;2813;-56
2022/12/06 11:04:04;;;;;;;;;;;;;;;19.76;34.26;95581.22;10448082;28;2775;-52
2022/12/06 11:09:19;;;;;;;;;;;;;;;19.77;34.17;95569.63;10434471;28;2724;-54
2022/12/06 11:14:25;;;;;;;;;;;;;;;19.76;33.89;95583.06;10439764;28;2738;-55
2022/12/06 11:19:49;;;;;;;;;;;;;;;19.77;33.96;95582.78;10437956;28;2817;-54
2022/12/06 11:24:51;;;;;;;;;;;;;;;19.76;34.12;95588.31;10436619;28;2744;-53
2022/12/06 11:29:52;;;;;;;;;;;;;;;19.76;33.96;95570.72;10443860;28;2564;-53
2022/12/06 11:34:52;;;;;;;;;;;;;;;19.74;34.17;95577.28;10442522;28;2876;-53
2022/12/06 11:39:53;;;;;;;;;;;;;;;19.75;34.26;95566.50;10425637;28;2811;-55
2022/12/06 11:44:58;;;;;;;;;;;;;;;19.78;33.66;95573.06;10443363;28;2865;-54
2022/12/06 11:49:58;;;;;;;;;;;;;;;19.78;34.23;95567.78;10450872;28;2727;-54
2022/12/06 11:54:59;;;;;;;;;;;;;;;19.78;34.24;95583.56;10439247;28;2742;-54
2022/12/06 12:00:10;;;;;;;;;;;;;;;19.81;34.00;95581.19;10441572;28;2885;-54
2022/12/06 12:05:16;;;;;;;;;;;;;;;19.79;34.10;95582.50;10444080;28;2731;-53
2022/12/06 12:10:27;;;;;;;;;;;;;;;19.82;34.07;95579.34;10447507;28;2782;-54
2022/12/06 12:15:27;;;;;;;;;;;;;;;19.83;33.92;95573.00;10456237;28;2749;-55
2022/12/06 12:20:37;;;;;;;;;;;;;;;19.85;34.00;95569.06;10424511;28;2759;-53
2022/12/06 12:25:41;;;;;;;;;;;;;;;19.84;33.87;95566.69;10437971;28;2770;-55
2022/12/06 12:30:45;;;;;;;;;;;;;;;19.84;33.92;95571.97;10442891;28;2699;-56
2022/12/06 12:35:50;;;;;;;;;;;;;;;19.83;34.16;95565.91;10440577;28;2684;-55
2022/12/06 12:40:54;;;;;;;;;;;;;;;19.81;33.92;95559.34;10458696;28;2761;-54
2022/12/06 12:46:04;;;;;;;;;;;;;;;19.84;33.81;95556.19;10458563;28;2823;-52
2022/12/06 12:51:05;;;;;;;;;;;;;;;19.85;33.73;95534.84;10445694;28;2729;-53
2022/12/06 12:56:06;;;;;;;;;;;;;;;19.82;33.62;95527.53;10436139;28;2696;-52
2022/12/06 13:01:30;;;;;;;;;;;;;;;19.81;34.01;95518.06;10441949;28;2731;-55
2022/12/06 13:06:35;;;;;;;;;;;;;;;19.82;33.84;95524.91;10431953;28;2702;-53
2022/12/06 13:11:50;;;;;;;;;;;;;;;19.81;34.32;95520.69;10425013;28;2664;-54
2022/12/06 13:16:51;;;;;;;;;;;;;;;19.86;34.21;95518.03;10454337;28;2793;-53
2022/12/06 13:21:52;;;;;;;;;;;;;;;19.83;34.21;95509.88;10425716;28;2810;-54
2022/12/06 13:27:00;;;;;;;;;;;;;;;19.84;34.27;95498.31;10438618;28;2727;-54
2022/12/06 13:32:04;;;;;;;;;;;;;;;19.81;34.02;95519.91;10424178;28;2785;-52
2022/12/06 13:37:23;;;;;;;;;;;;;;;19.81;34.44;95520.69;10426782;28;2747;-52
2022/12/06 13:42:35;;;;;;;;;;;;;;;19.83;34.23;95525.66;10431610;28;2698;-52
2022/12/06 13:47:38;;;;;;;;;;;;;;;19.81;34.26;95504.91;10432797;28;2830;-51
2022/12/06 13:52:42;;;;;;;;;;;;;;;19.83;34.17;95494.91;10435535;28;2709;-52
2022/12/06 13:57:42;;;;;;;;;;;;;;;19.79;34.30;95490.44;10431869;28;2908;-50
2022/12/06 14:02:43;;;;;;;;;;;;;;;19.82;34.43;95495.19;10438496;28;2747;-53
2022/12/06 14:07:43;;;;;;;;;;;;;;;19.81;33.90;95488.34;10436590;28;2807;-49
2022/12/06 14:12:43;;;;;;;;;;;;;;;19.81;34.18;95490.97;10436344;28;2728;-52
2022/12/06 14:17:44;;;;;;;;;;;;;;;19.79;33.82;95500.97;10434311;28;2865;-53
2022/12/06 14:22:45;;;;;;;;;;;;;;;19.81;34.17;95507.53;10433570;28;2717;-51
2022/12/06 14:27:46;;;;;;;;;;;;;;;19.80;33.85;95505.97;10430729;28;2814;-53
2022/12/06 14:32:56;;;;;;;;;;;;;;;19.79;34.26;95506.22;10434596;28;2739;-51
2022/12/06 14:38:02;;;;;;;;;;;;;;;19.79;33.94;95495.72;10426372;28;3048;-49
2022/12/06 14:43:03;;;;;;;;;;;;;;;19.79;34.15;95490.44;10429543;28;2843;-53
2022/12/06 14:48:04;;;;;;;;;;;;;;;19.79;33.89;95491.25;10435298;28;2785;-54
2022/12/06 14:53:06;;;;;;;;;;;;;;;19.80;33.98;95497.28;10437252;28;2742;-51
2022/12/06 14:58:13;;;;;;;;;;;;;;;19.80;34.16;95487.56;10424504;28;3119;-52
2022/12/06 15:03:13;;;;;;;;;;;;;;;19.79;33.87;95500.97;10440818;28;2757;-53
2022/12/06 15:08:25;;;;;;;;;;;;;;;19.85;34.26;95500.66;10433251;28;2772;-53
2022/12/06 15:13:26;;;;;;;;;;;;;;;19.82;33.86;95508.31;10429741;28;2696;-49
2022/12/06 15:18:27;;;;;;;;;;;;;;;19.81;33.82;95501.47;10434715;28;2758;-51
2022/12/06 15:23:28;;;;;;;;;;;;;;;19.84;33.83;95506.22;10420271;28;2703;-52
2022/12/06 15:28:28;;;;;;;;;;;;;;;19.82;33.79;95503.06;10439729;28;2771;-53
2022/12/06 15:33:29;;;;;;;;;;;;;;;19.80;34.11;95500.72;10424938;28;2703;-55
2022/12/06 15:38:29;;;;;;;;;;;;;;;19.80;33.92;95498.09;10434050;28;2738;-52
2022/12/06 15:43:30;;;;;;;;;;;;;;;19.81;33.94;95504.91;10439007;28;2757;-53
2022/12/06 15:48:31;;;;;;;;;;;;;;;19.80;33.83;95490.19;10429615;28;2743;-52
2022/12/06 15:53:31;;;;;;;;;;;;;;;19.79;33.60;95495.72;10449003;28;2822;-53
2022/12/06 15:58:31;;;;;;;;;;;;;;;19.81;33.76;95490.97;10447938;28;2680;-54
2022/12/06 16:03:31;;;;;;;;;;;;;;;19.82;33.81;95495.19;10432029;28;2718;-52
2022/12/06 16:08:32;;;;;;;;;;;;;;;19.81;33.94;95483.06;10427845;28;2743;-50
2022/12/06 16:13:32;;;;;;;;;;;;;;;19.82;33.80;95488.06;10440207;28;2803;-50
2022/12/06 16:18:32;;;;;;;;;;;;;;;19.83;33.55;95481.75;10442815;28;2735;-54
2022/12/06 16:28:51;;;;;;;;;;;;;;;19.81;33.71;95488.34;10449771;28;2690;-55
2022/12/06 16:33:52;;;;;;;;;;;;;;;19.89;34.08;95493.78;10448517;28;2843;-54
2022/12/06 16:38:52;;;;;;;;;;;;;;;19.93;33.98;95486.13;10445494;28;2656;-53
2022/12/06 16:43:54;;;;;;;;;;;;;;;19.94;34.07;95488.50;10435215;28;2751;-53
2022/12/06 16:48:58;;;;;;;;;;;;;;;20.00;33.35;95490.03;10418128;28;2770;-56
2022/12/06 16:53:58;;;;;;;;;;;;;;;19.88;33.48;95489.59;10445427;28;2817;-53
2022/12/06 16:59:00;;;;;;;;;;;;;;;20.00;34.36;95490.03;10425303;28;2860;-53
2022/12/06 17:04:00;;;;;;;;;;;;;;;20.09;34.48;95488.34;10447625;28;2707;-53
2022/12/06 17:09:01;;;;;;;;;;;;;;;20.15;34.09;95495.16;10443153;28;2654;-54
2022/12/06 17:14:01;;;;;;;;;;;;;;;20.16;34.51;95501.22;10448447;28;2878;-52
2022/12/06 17:19:02;;;;;;;;;;;;;;;20.16;34.33;95501.22;10447003;28;2715;-54
2022/12/06 17:24:02;;;;;;;;;;;;;;;20.17;34.72;95500.16;10446177;28;2765;-53
2022/12/06 17:29:03;;;;;;;;;;;;;;;20.23;34.75;95504.34;10447467;28;2683;-55
2022/12/06 17:34:03;;;;;;;;;;;;;;;20.23;34.59;95506.97;10446358;28;2806;-53
2022/12/06 17:39:10;;;;;;;;;;;;;;;20.18;34.71;95509.59;10440426;28;2753;-55
2022/12/06 17:44:10;;;;;;;;;;;;;;;20.20;34.72;95510.16;10446265;28;2762;-54
2022/12/06 17:49:12;;;;;;;;;;;;;;;20.17;34.80;95514.06;10448431;28;2704;-54
2022/12/06 17:54:12;;;;;;;;;;;;;;;20.23;34.96;95510.41;10444447;28;2763;-55
2022/12/06 17:59:16;;;;;;;;;;;;;;;20.19;35.26;95505.94;10458062;28;2754;-52
2022/12/06 18:04:16;;;;;;;;;;;;;;;20.14;35.23;95519.13;10447166;28;2829;-52
2022/12/06 18:09:17;;;;;;;;;;;;;;;20.08;35.33;95525.47;10445973;28;2710;-50
2022/12/06 18:14:17;;;;;;;;;;;;;;;20.08;35.56;95528.13;10443338;28;2874;-54
2022/12/06 18:19:18;;;;;;;;;;;;;;;20.05;35.69;95529.44;10446185;28;2739;-53
2022/12/06 18:24:18;;;;;;;;;;;;;;;20.06;35.42;95517.09;10447431;28;2687;-52
2022/12/06 18:29:19;;;;;;;;;;;;;;;20.07;35.26;95522.06;10416452;28;2775;-55
2022/12/06 18:34:19;;;;;;;;;;;;;;;20.06;35.44;95523.13;10442415;28;2810;-53
2022/12/06 18:39:23;;;;;;;;;;;;;;;20.04;35.47;95520.00;10444414;28;2827;-55
2022/12/06 18:44:23;;;;;;;;;;;;;;;20.08;35.59;95526.28;10438947;28;2693;-55
2022/12/06 18:49:24;;;;;;;;;;;;;;;20.01;35.57;95523.16;10440101;28;2782;-50
2022/12/06 18:54:25;;;;;;;;;;;;;;;20.00;35.58;95531.34;10442901;28;3069;-55
2022/12/06 18:59:25;;;;;;;;;;;;;;;19.98;35.39;95531.63;10445656;28;2732;-54
2022/12/06 19:04:25;;;;;;;;;;;;;;;19.94;35.42;95532.44;10443089;28;2757;-54
2022/12/06 19:09:26;;;;;;;;;;;;;;;19.91;35.54;95525.06;10444017;28;2729;-54
2022/12/06 19:14:26;;;;;;;;;;;;;;;19.93;35.34;95539.53;10444914;28;3084;-54
2022/12/06 19:19:26;;;;;;;;;;;;;;;19.91;35.14;95539.03;10438804;28;2851;-53
2022/12/06 19:24:28;;;;;;;;;;;;;;;19.92;35.36;95534.56;10446098;28;2763;-54
2022/12/06 19:29:28;;;;;;;;;;;;;;;19.94;35.35;95529.81;10447608;28;2880;-55
2022/12/06 19:34:29;;;;;;;;;;;;;;;19.93;35.24;95534.28;10451311;28;3033;-56
2022/12/06 19:39:29;;;;;;;;;;;;;;;19.90;35.06;95528.78;10448939;28;2699;-53
2022/12/06 19:44:29;;;;;;;;;;;;;;;19.92;35.25;95537.19;10450536;28;2822;-55
2022/12/06 19:49:30;;;;;;;;;;;;;;;19.99;35.47;95542.94;10437978;28;2753;-55
2022/12/06 19:54:31;;;;;;;;;;;;;;;20.00;35.28;95541.88;10442852;28;2766;-54
2022/12/06 19:59:33;;;;;;;;;;;;;;;19.90;35.11;95537.47;10434941;28;2764;-54
2022/12/06 20:04:34;;;;;;;;;;;;;;;19.89;34.97;95537.72;10440029;28;2793;-55
2022/12/06 20:09:34;;;;;;;;;;;;;;;19.88;35.14;95531.69;10438772;28;2754;-53
2022/12/06 20:14:38;;;;;;;;;;;;;;;19.84;34.97;95530.66;10438194;28;2939;-54
2022/12/06 20:19:41;;;;;;;;;;;;;;;19.82;34.96;95532.00;10436452;28;2718;-54
2022/12/06 20:24:42;;;;;;;;;;;;;;;19.77;34.92;95524.94;10437652;28;2635;-55
2022/12/06 20:29:42;;;;;;;;;;;;;;;19.77;34.59;95521.50;10436866;28;2751;-55
2022/12/06 20:34:43;;;;;;;;;;;;;;;19.70;34.74;95526.31;10435959;28;2750;-55
2022/12/06 20:39:43;;;;;;;;;;;;;;;19.64;34.76;95528.16;10433583;28;2747;-51
2022/12/06 20:44:43;;;;;;;;;;;;;;;19.58;34.55;95523.97;10435730;28;2692;-55
2022/12/06 20:49:44;;;;;;;;;;;;;;;19.58;34.62;95523.97;10438534;28;2778;-53
2022/12/06 20:54:44;;;;;;;;;;;;;;;19.55;34.67;95527.19;10433261;28;2794;-54
2022/12/06 20:59:44;;;;;;;;;;;;;;;19.50;34.69;95529.81;10433007;28;2715;-51
2022/12/06 21:04:45;;;;;;;;;;;;;;;19.43;34.57;95524.84;10435602;28;2881;-55
2022/12/06 21:09:45;;;;;;;;;;;;;;;19.38;34.71;95521.47;10436578;28;2727;-54
2022/12/06 21:14:45;;;;;;;;;;;;;;;19.35;34.42;95520.16;10432963;28;2751;-55
2022/12/06 21:19:46;;;;;;;;;;;;;;;19.31;34.58;95529.63;10434647;28;2803;-55
2022/12/06 21:24:46;;;;;;;;;;;;;;;19.30;34.39;95528.06;10436321;28;2700;-56
2022/12/06 21:29:47;;;;;;;;;;;;;;;19.26;34.41;95529.66;10434500;28;2757;-55
2022/12/06 21:34:47;;;;;;;;;;;;;;;19.25;34.43;95535.97;10433377;28;2747;-56
2022/12/06 21:39:47;;;;;;;;;;;;;;;19.21;34.43;95537.56;10435258;28;2901;-52
2022/12/06 21:44:48;;;;;;;;;;;;;;;19.17;34.46;95544.41;10433669;28;2737;-54
2022/12/06 21:49:48;;;;;;;;;;;;;;;19.10;34.52;95549.16;10435458;28;2710;-53
2022/12/06 21:54:48;;;;;;;;;;;;;;;19.09;34.49;95547.59;10442697;28;2742;-53
2022/12/06 21:59:48;;;;;;;;;;;;;;;19.10;34.35;95543.13;10433724;28;2759;-57
2022/12/06 22:04:49;;;;;;;;;;;;;;;19.08;34.36;95548.63;10434008;28;2803;-54
2022/12/06 22:09:49;;;;;;;;;;;;;;;19.02;34.52;95541.81;10432673;28;2773;-53
2022/12/06 22:14:49;;;;;;;;;;;;;;;19.01;34.28;95542.91;10427550;28;2863;-55
2022/12/06 22:19:50;;;;;;;;;;;;;;;19.00;34.11;95536.06;10428669;28;3051;-53
2022/12/06 22:24:50;;;;;;;;;;;;;;;18.97;34.34;95538.44;10430528;28;2745;-55
2022/12/06 22:29:50;;;;;;;;;;;;;;;18.93;34.23;95546.06;10426125;28;2728;-52
2022/12/06 22:34:50;;;;;;;;;;;;;;;18.91;34.24;95548.19;10437091;28;2821;-54
2022/12/06 22:39:51;;;;;;;;;;;;;;;18.86;34.24;95550.03;10430230;28;3080;-54
2022/12/06 22:44:51;;;;;;;;;;;;;;;18.83;34.29;95551.38;10435065;28;2731;-55
2022/12/06 22:49:51;;;;;;;;;;;;;;;18.81;34.23;95545.59;10430679;28;2736;-53
2022/12/06 22:54:52;;;;;;;;;;;;;;;18.80;34.30;95541.38;10438168;28;2761;-54
2022/12/06 22:59:52;;;;;;;;;;;;;;;18.78;34.14;95542.69;10431349;28;2802;-54
2022/12/06 23:04:52;;;;;;;;;;;;;;;18.76;34.20;95545.59;10428445;28;2710;-52
2022/12/06 23:09:52;;;;;;;;;;;;;;;18.74;34.11;95533.78;10434025;28;2691;-56
2022/12/06 23:14:53;;;;;;;;;;;;;;;18.71;34.06;95540.38;10436548;28;2840;-55
2022/12/06 23:19:54;;;;;;;;;;;;;;;18.66;34.25;95540.38;10436081;28;2753;-55
2022/12/06 23:24:54;;;;;;;;;;;;;;;18.63;34.24;95535.63;10437721;28;2753;-56
2022/12/06 23:29:54;;;;;;;;;;;;;;;18.59;34.13;95542.47;10435079;28;2727;-54
2022/12/06 23:34:54;;;;;;;;;;;;;;;18.56;34.17;95530.69;10435185;28;2747;-55
2022/12/06 23:39:55;;;;;;;;;;;;;;;18.53;34.07;95536.44;10437940;28;2694;-54
2022/12/06 23:44:55;;;;;;;;;;;;;;;18.49;34.23;95542.50;10432610;28;2820;-53
2022/12/06 23:49:55;;;;;;;;;;;;;;;18.48;34.07;95536.47;10432096;28;2765;-54
2022/12/06 23:54:55;;;;;;;;;;;;;;;18.45;34.23;95546.69;10435613;28;2751;-52
2022/12/06 23:59:56;;;;;;;;;;;;;;;18.43;34.17;95548.78;10432050;28;2686;-50
